createdAt,value
2022-11-03T00:00:13.065Z,0.00
2022-11-03T00:01:12.636Z,0.00
2022-11-03T00:02:12.671Z,0.00
2022-11-03T00:03:11.869Z,0.00
2022-11-03T00:04:12.788Z,0.00
2022-11-03T00:05:12.526Z,0.00
2022-11-03T00:06:12.519Z,0.00
2022-11-03T00:07:11.827Z,0.00
2022-11-03T00:09:11.835Z,0.00
2022-11-03T00:10:11.789Z,0.00
2022-11-03T00:11:12.462Z,0.00
2022-11-03T00:12:11.785Z,0.00
2022-11-03T00:13:12.444Z,0.00
2022-11-03T00:14:12.434Z,0.00
2022-11-03T00:15:12.435Z,0.00
2022-11-03T00:16:12.427Z,0.00
2022-11-03T00:17:11.724Z,0.00
2022-11-03T00:18:12.440Z,0.00
2022-11-03T00:19:11.684Z,0.00
2022-11-03T00:20:11.781Z,0.00
2022-11-03T00:21:12.351Z,0.00
2022-11-03T00:22:11.649Z,0.00
2022-11-03T00:23:12.335Z,0.00
2022-11-03T00:24:11.633Z,0.00
2022-11-03T00:25:11.636Z,0.00
2022-11-03T00:26:12.290Z,0.00
2022-11-03T00:27:11.608Z,0.00
2022-11-03T00:28:12.280Z,0.00
2022-11-03T00:29:11.591Z,0.00
2022-11-03T00:30:12.246Z,0.00
2022-11-03T00:31:12.411Z,0.00
2022-11-03T00:32:11.582Z,0.00
2022-11-03T00:33:12.237Z,0.00
2022-11-03T00:34:12.213Z,0.00
2022-11-03T00:35:12.456Z,0.00
2022-11-03T00:36:12.186Z,0.00
2022-11-03T00:37:12.321Z,0.00
2022-11-03T00:38:11.594Z,0.00
2022-11-03T00:39:12.158Z,0.00
2022-11-03T00:40:12.152Z,0.00
2022-11-03T00:41:12.127Z,0.00
2022-11-03T00:42:11.426Z,0.00
2022-11-03T00:43:11.437Z,0.00
2022-11-03T00:44:12.467Z,0.00
2022-11-03T00:45:12.096Z,0.00
2022-11-03T00:46:12.087Z,0.00
2022-11-03T00:47:11.368Z,0.00
2022-11-03T00:48:12.065Z,0.00
2022-11-03T00:49:12.048Z,0.00
2022-11-03T00:50:11.369Z,0.00
2022-11-03T00:51:12.019Z,0.00
2022-11-03T00:52:11.358Z,0.00
2022-11-03T00:53:11.308Z,0.00
2022-11-03T00:54:11.996Z,0.00
2022-11-03T00:55:12.210Z,0.00
2022-11-03T00:56:11.959Z,0.00
2022-11-03T00:57:11.957Z,0.00
2022-11-03T00:58:11.960Z,0.00
2022-11-03T00:59:11.938Z,0.00
2022-11-03T01:00:11.231Z,0.00
2022-11-03T01:01:12.019Z,0.00
2022-11-03T01:02:11.432Z,0.00
2022-11-03T01:03:12.122Z,0.00
2022-11-03T01:04:11.872Z,0.00
2022-11-03T01:05:11.872Z,0.00
2022-11-03T01:06:11.176Z,0.00
2022-11-03T01:07:11.862Z,0.00
2022-11-03T01:08:11.920Z,0.00
2022-11-03T01:09:11.822Z,0.00
2022-11-03T01:10:11.123Z,0.00
2022-11-03T01:11:12.075Z,0.00
2022-11-03T01:12:11.795Z,0.00
2022-11-03T01:13:11.784Z,0.00
2022-11-03T01:14:11.894Z,0.00
2022-11-03T01:15:11.063Z,0.00
2022-11-03T01:16:11.754Z,0.00
2022-11-03T01:17:11.072Z,0.00
2022-11-03T01:18:11.048Z,0.00
2022-11-03T01:19:11.975Z,0.00
2022-11-03T01:20:12.565Z,0.00
2022-11-03T01:21:11.687Z,0.00
2022-11-03T01:22:11.687Z,0.00
2022-11-03T01:23:11.672Z,0.00
2022-11-03T01:24:11.377Z,0.00
2022-11-03T01:25:11.646Z,0.00
2022-11-03T01:26:11.712Z,0.00
2022-11-03T01:27:11.626Z,0.00
2022-11-03T01:28:10.944Z,0.00
2022-11-03T01:29:11.844Z,0.00
2022-11-03T01:30:11.600Z,0.00
2022-11-03T01:31:11.588Z,0.00
2022-11-03T01:32:11.003Z,0.00
2022-11-03T01:33:10.927Z,0.00
2022-11-03T01:34:10.879Z,0.00
2022-11-03T01:35:10.887Z,0.00
2022-11-03T01:36:10.849Z,0.00
2022-11-03T01:37:10.839Z,0.00
2022-11-03T01:38:10.890Z,0.00
2022-11-03T01:39:11.499Z,0.00
2022-11-03T01:40:11.631Z,0.00
2022-11-03T01:41:11.476Z,0.00
2022-11-03T01:42:10.781Z,0.00
2022-11-03T01:43:11.451Z,0.00
2022-11-03T01:44:11.522Z,0.00
2022-11-03T01:45:11.430Z,0.00
2022-11-03T01:46:10.731Z,0.00
2022-11-03T01:47:11.411Z,0.00
2022-11-03T01:48:11.412Z,0.00
2022-11-03T01:49:11.400Z,0.00
2022-11-03T01:50:10.727Z,0.00
2022-11-03T01:51:11.373Z,0.00
2022-11-03T01:52:10.711Z,0.00
2022-11-03T01:53:11.583Z,0.00
2022-11-03T01:54:11.526Z,0.00
2022-11-03T01:55:11.316Z,0.00
2022-11-03T01:56:10.644Z,0.00
2022-11-03T01:57:12.044Z,0.00
2022-11-03T01:58:10.604Z,0.00
2022-11-03T01:59:11.177Z,0.00
2022-11-03T02:00:10.634Z,0.00
2022-11-03T02:01:11.295Z,0.00
2022-11-03T02:02:10.774Z,0.00
2022-11-03T02:03:10.555Z,0.00
2022-11-03T02:04:11.226Z,0.00
2022-11-03T02:05:11.215Z,0.00
2022-11-03T02:06:11.215Z,0.00
2022-11-03T02:07:10.497Z,0.00
2022-11-03T02:08:10.514Z,0.00
2022-11-03T02:09:10.506Z,0.00
2022-11-03T02:10:10.696Z,0.00
2022-11-03T02:11:10.487Z,0.00
2022-11-03T02:12:10.499Z,0.00
2022-11-03T02:13:11.127Z,0.00
2022-11-03T02:14:10.435Z,0.00
2022-11-03T02:15:10.426Z,0.00
2022-11-03T02:16:11.098Z,0.00
2022-11-03T02:17:11.103Z,0.00
2022-11-03T02:18:11.090Z,0.00
2022-11-03T02:19:11.073Z,0.00
2022-11-03T02:20:10.399Z,0.00
2022-11-03T02:21:11.045Z,0.00
2022-11-03T02:22:11.037Z,0.00
2022-11-03T02:23:10.588Z,0.00
2022-11-03T02:24:11.772Z,0.00
2022-11-03T02:25:10.307Z,0.00
2022-11-03T02:26:10.979Z,0.00
2022-11-03T02:27:10.300Z,0.00
2022-11-03T02:28:10.292Z,0.00
2022-11-03T02:29:10.950Z,0.00
2022-11-03T02:30:11.832Z,0.00
2022-11-03T02:31:10.261Z,0.00
2022-11-03T02:32:10.246Z,0.00
2022-11-03T02:33:10.296Z,0.00
2022-11-03T02:34:10.252Z,0.00
2022-11-03T02:35:10.890Z,0.00
2022-11-03T02:36:10.212Z,0.00
2022-11-03T02:37:10.185Z,0.00
2022-11-03T02:38:10.354Z,0.00
2022-11-03T02:39:10.845Z,0.00
2022-11-03T02:40:10.142Z,0.00
2022-11-03T02:41:10.824Z,0.00
2022-11-03T02:42:10.801Z,0.00
2022-11-03T02:43:10.797Z,0.00
2022-11-03T02:44:10.785Z,0.00
2022-11-03T02:45:13.326Z,0.00
2022-11-03T02:46:11.075Z,0.00
2022-11-03T02:47:10.759Z,0.00
2022-11-03T02:48:10.709Z,0.00
2022-11-03T02:49:10.733Z,0.00
2022-11-03T02:50:10.065Z,0.00
2022-11-03T02:51:10.716Z,0.00
2022-11-03T02:52:10.704Z,0.00
2022-11-03T02:53:10.084Z,0.00
2022-11-03T02:54:09.998Z,0.00
2022-11-03T02:55:10.034Z,0.00
2022-11-03T02:56:10.657Z,0.00
2022-11-03T02:57:09.969Z,0.00
2022-11-03T02:58:10.627Z,0.00
2022-11-03T02:59:10.702Z,0.00
2022-11-03T03:00:10.622Z,0.00
2022-11-03T03:01:10.743Z,0.00
2022-11-03T03:02:10.661Z,0.00
2022-11-03T03:03:10.586Z,0.00
2022-11-03T03:04:10.569Z,0.00
2022-11-03T03:05:10.550Z,0.00
2022-11-03T03:06:09.891Z,0.00
2022-11-03T03:07:09.870Z,0.00
2022-11-03T03:08:10.520Z,0.00
2022-11-03T03:09:10.511Z,0.00
2022-11-03T03:10:09.819Z,0.00
2022-11-03T03:11:10.475Z,0.00
2022-11-03T03:12:09.821Z,0.00
2022-11-03T03:13:10.044Z,0.00
2022-11-03T03:14:09.785Z,0.00
2022-11-03T03:15:09.803Z,0.00
2022-11-03T03:16:09.750Z,0.00
2022-11-03T03:17:10.432Z,0.00
2022-11-03T03:18:09.772Z,0.00
2022-11-03T03:19:10.405Z,0.00
2022-11-03T03:20:10.393Z,0.00
2022-11-03T03:21:10.392Z,0.00
2022-11-03T03:22:10.622Z,0.00
2022-11-03T03:23:11.805Z,0.00
2022-11-03T03:24:10.363Z,0.00
2022-11-03T03:25:10.350Z,0.00
2022-11-03T03:26:09.649Z,0.00
2022-11-03T03:27:09.623Z,0.00
2022-11-03T03:28:09.623Z,0.00
2022-11-03T03:29:09.624Z,0.00
2022-11-03T03:30:10.284Z,0.00
2022-11-03T03:31:10.265Z,0.00
2022-11-03T03:32:09.595Z,0.00
2022-11-03T03:33:10.411Z,0.00
2022-11-03T03:34:31.282Z,0.00
2022-11-03T03:35:11.211Z,0.00
2022-11-03T03:36:10.216Z,0.00
2022-11-03T03:37:10.205Z,0.00
2022-11-03T03:38:10.206Z,0.00
2022-11-03T03:39:10.186Z,0.00
2022-11-03T03:40:10.917Z,0.00
2022-11-03T03:41:11.007Z,0.00
2022-11-03T03:42:09.956Z,0.00
2022-11-03T03:43:10.139Z,0.00
2022-11-03T03:44:09.468Z,0.00
2022-11-03T03:45:09.429Z,0.00
2022-11-03T03:46:10.107Z,0.00
2022-11-03T03:47:09.436Z,0.00
2022-11-03T03:48:09.728Z,0.00
2022-11-03T03:49:09.400Z,0.00
2022-11-03T03:50:09.380Z,0.00
2022-11-03T03:51:09.380Z,0.00
2022-11-03T03:52:10.039Z,0.00
2022-11-03T03:53:09.380Z,0.00
2022-11-03T03:54:09.343Z,0.00
2022-11-03T03:55:10.147Z,0.00
2022-11-03T03:56:09.312Z,0.00
2022-11-03T03:57:09.311Z,0.00
2022-11-03T03:58:09.525Z,0.00
2022-11-03T03:59:09.326Z,0.00
2022-11-03T04:00:09.962Z,0.00
2022-11-03T04:01:09.310Z,0.00
2022-11-03T04:02:09.381Z,0.00
2022-11-03T04:03:09.249Z,0.00
2022-11-03T04:04:09.910Z,0.00
2022-11-03T04:05:09.997Z,0.00
2022-11-03T04:06:09.892Z,0.00
2022-11-03T04:07:10.633Z,0.00
2022-11-03T04:08:09.297Z,0.00
2022-11-03T04:09:09.194Z,0.00
2022-11-03T04:10:09.853Z,0.00
2022-11-03T04:11:09.189Z,0.00
2022-11-03T04:12:09.133Z,0.00
2022-11-03T04:13:11.905Z,0.00
2022-11-03T04:14:09.335Z,0.00
2022-11-03T04:15:09.625Z,0.00
2022-11-03T04:16:10.854Z,0.00
2022-11-03T04:17:09.107Z,0.00
2022-11-03T04:18:10.909Z,0.00
2022-11-03T04:19:09.235Z,0.00
2022-11-03T04:20:09.138Z,0.00
2022-11-03T04:21:09.072Z,0.00
2022-11-03T04:22:09.712Z,0.00
2022-11-03T04:23:09.026Z,0.00
2022-11-03T04:24:09.048Z,0.00
2022-11-03T04:25:08.997Z,0.00
2022-11-03T04:26:10.427Z,0.00
2022-11-03T04:27:08.972Z,0.00
2022-11-03T04:28:09.080Z,0.00
2022-11-03T04:29:09.646Z,0.00
2022-11-03T04:30:09.209Z,0.00
2022-11-03T04:31:08.948Z,0.00
2022-11-03T04:32:09.291Z,0.00
2022-11-03T04:33:09.599Z,0.00
2022-11-03T04:34:09.690Z,0.00
2022-11-03T04:35:09.583Z,0.00
2022-11-03T04:36:08.920Z,0.00
2022-11-03T04:37:09.582Z,0.00
2022-11-03T04:38:09.801Z,0.00
2022-11-03T04:39:09.558Z,0.00
2022-11-03T04:40:09.502Z,0.00
2022-11-03T04:41:08.943Z,0.00
2022-11-03T04:42:08.826Z,0.00
2022-11-03T04:43:09.613Z,0.00
2022-11-03T04:44:09.481Z,0.00
2022-11-03T04:45:09.462Z,0.00
2022-11-03T04:46:09.446Z,0.00
2022-11-03T04:47:09.447Z,0.00
2022-11-03T04:48:08.764Z,0.00
2022-11-03T04:49:09.423Z,0.00
2022-11-03T04:50:09.402Z,0.00
2022-11-03T04:51:09.395Z,0.00
2022-11-03T04:52:09.486Z,0.00
2022-11-03T04:53:09.037Z,0.00
2022-11-03T04:54:08.684Z,0.00
2022-11-03T04:55:08.664Z,0.00
2022-11-03T04:56:09.343Z,0.00
2022-11-03T04:57:11.557Z,0.00
2022-11-03T04:58:11.512Z,0.00
2022-11-03T04:59:08.688Z,0.00
2022-11-03T05:00:08.657Z,0.00
2022-11-03T05:01:08.642Z,0.00
2022-11-03T05:03:09.450Z,0.00
2022-11-03T05:04:09.330Z,0.00
2022-11-03T05:05:09.240Z,0.00
2022-11-03T05:06:08.559Z,0.00
2022-11-03T05:07:10.470Z,0.00
2022-11-03T05:08:09.217Z,0.00
2022-11-03T05:09:08.507Z,0.00
2022-11-03T05:10:08.527Z,0.00
2022-11-03T05:11:10.430Z,0.00
2022-11-03T05:12:09.168Z,0.00
2022-11-03T05:13:09.503Z,0.00
2022-11-03T05:14:09.888Z,0.00
2022-11-03T05:15:09.129Z,0.00
2022-11-03T05:16:09.102Z,0.00
2022-11-03T05:17:09.108Z,0.00
2022-11-03T05:18:09.107Z,0.00
2022-11-03T05:19:08.401Z,0.00
2022-11-03T05:20:09.081Z,0.00
2022-11-03T05:21:09.069Z,0.00
2022-11-03T05:22:08.390Z,0.00
2022-11-03T05:23:09.358Z,0.00
2022-11-03T05:24:09.064Z,0.00
2022-11-03T05:25:09.021Z,0.00
2022-11-03T05:26:08.332Z,0.00
2022-11-03T05:27:08.313Z,0.00
2022-11-03T05:28:08.718Z,0.00
2022-11-03T05:29:08.284Z,0.00
2022-11-03T05:30:08.964Z,0.00
2022-11-03T05:31:08.952Z,0.00
2022-11-03T05:32:08.596Z,0.00
2022-11-03T05:33:08.932Z,0.00
2022-11-03T05:34:08.252Z,0.00
2022-11-03T05:35:08.235Z,0.00
2022-11-03T05:36:08.218Z,0.00
2022-11-03T05:37:08.232Z,0.00
2022-11-03T05:38:08.476Z,0.00
2022-11-03T05:39:08.204Z,0.00
2022-11-03T05:40:08.927Z,0.00
2022-11-03T05:41:08.843Z,0.00
2022-11-03T05:42:09.085Z,0.00
2022-11-03T05:43:12.153Z,0.00
2022-11-03T05:44:08.126Z,0.00
2022-11-03T05:45:08.799Z,0.00
2022-11-03T05:46:08.154Z,0.00
2022-11-03T05:47:08.450Z,0.00
2022-11-03T05:48:09.004Z,0.00
2022-11-03T05:49:08.755Z,0.00
2022-11-03T05:50:08.055Z,0.00
2022-11-03T05:51:08.737Z,0.00
2022-11-03T05:52:08.706Z,0.00
2022-11-03T05:53:08.717Z,0.00
2022-11-03T05:54:08.697Z,0.00
2022-11-03T05:55:08.009Z,0.00
2022-11-03T05:56:08.678Z,0.00
2022-11-03T05:57:08.009Z,0.00
2022-11-03T05:58:08.981Z,0.00
2022-11-03T05:59:08.648Z,0.00
2022-11-03T06:00:08.631Z,0.00
2022-11-03T06:01:07.948Z,0.00
2022-11-03T06:02:09.498Z,0.00
2022-11-03T06:03:07.921Z,4.00
2022-11-03T06:04:08.581Z,4.00
2022-11-03T06:05:07.890Z,0.00
2022-11-03T06:06:08.600Z,4.00
2022-11-03T06:07:08.561Z,4.00
2022-11-03T06:08:08.840Z,4.00
2022-11-03T06:09:08.542Z,4.00
2022-11-03T06:10:08.512Z,8.00
2022-11-03T06:11:08.520Z,8.00
2022-11-03T06:12:08.501Z,8.00
2022-11-03T06:13:08.962Z,8.00
2022-11-03T06:14:08.482Z,12.00
2022-11-03T06:15:08.472Z,12.00
2022-11-03T06:16:08.451Z,16.00
2022-11-03T06:17:08.452Z,16.00
2022-11-03T06:18:07.744Z,20.00
2022-11-03T06:19:07.763Z,24.00
2022-11-03T06:20:08.423Z,28.00
2022-11-03T06:21:08.438Z,28.00
2022-11-03T06:22:08.683Z,32.00
2022-11-03T06:23:07.966Z,36.00
2022-11-03T06:24:08.421Z,36.00
2022-11-03T06:25:08.384Z,36.00
2022-11-03T06:26:07.674Z,40.00
2022-11-03T06:27:08.337Z,44.00
2022-11-03T06:28:08.635Z,48.00
2022-11-03T06:29:07.647Z,52.00
2022-11-03T06:30:07.638Z,52.00
2022-11-03T06:31:07.617Z,56.00
2022-11-03T06:32:08.299Z,60.00
2022-11-03T06:33:08.573Z,64.00
2022-11-03T06:34:08.250Z,68.00
2022-11-03T06:35:07.570Z,76.00
2022-11-03T06:36:07.556Z,76.00
2022-11-03T06:37:12.524Z,84.00
2022-11-03T06:38:09.228Z,88.00
2022-11-03T06:39:08.209Z,96.00
2022-11-03T06:40:07.555Z,104.00
2022-11-03T06:41:08.191Z,108.00
2022-11-03T06:42:08.460Z,112.00
2022-11-03T06:43:08.461Z,124.00
2022-11-03T06:44:08.160Z,132.00
2022-11-03T06:45:08.149Z,144.00
2022-11-03T06:46:08.118Z,156.00
2022-11-03T06:47:07.559Z,164.00
2022-11-03T06:48:07.435Z,176.00
2022-11-03T06:49:08.119Z,196.00
2022-11-03T06:50:08.880Z,208.00
2022-11-03T06:51:08.161Z,216.00
2022-11-03T06:52:08.852Z,224.00
2022-11-03T06:53:08.346Z,236.00
2022-11-03T06:54:08.051Z,252.00
2022-11-03T06:55:12.112Z,264.00
2022-11-03T06:56:08.351Z,280.00
2022-11-03T06:57:07.331Z,292.00
2022-11-03T06:58:07.991Z,308.00
2022-11-03T06:59:08.002Z,324.00
2022-11-03T07:00:28.448Z,340.00
2022-11-03T07:01:08.374Z,352.00
2022-11-03T07:02:08.330Z,368.00
2022-11-03T07:03:08.476Z,380.00
2022-11-03T07:04:07.382Z,388.00
2022-11-03T07:05:07.511Z,396.00
2022-11-03T07:06:07.934Z,416.00
2022-11-03T07:07:07.905Z,432.00
2022-11-03T07:08:07.895Z,456.00
2022-11-03T07:09:08.145Z,480.00
2022-11-03T07:10:07.304Z,496.00
2022-11-03T07:11:07.555Z,520.00
2022-11-03T07:12:07.864Z,540.00
2022-11-03T07:13:07.949Z,568.00
2022-11-03T07:14:07.157Z,596.00
2022-11-03T07:15:08.603Z,620.00
2022-11-03T07:16:07.816Z,636.00
2022-11-03T07:17:07.806Z,652.00
2022-11-03T07:18:08.106Z,672.00
2022-11-03T07:19:07.780Z,684.00
2022-11-03T07:20:07.768Z,692.00
2022-11-03T07:21:07.059Z,696.00
2022-11-03T07:22:08.045Z,708.00
2022-11-03T07:23:07.045Z,716.00
2022-11-03T07:24:07.737Z,724.00
2022-11-03T07:25:07.019Z,732.00
2022-11-03T07:26:07.709Z,740.00
2022-11-03T07:27:07.779Z,740.00
2022-11-03T07:28:08.031Z,748.00
2022-11-03T07:29:06.988Z,756.00
2022-11-03T07:30:07.664Z,760.00
2022-11-03T07:31:11.185Z,772.00
2022-11-03T07:32:07.990Z,776.00
2022-11-03T07:33:06.952Z,788.00
2022-11-03T07:34:07.621Z,804.00
2022-11-03T07:35:07.618Z,812.00
2022-11-03T07:36:15.528Z,820.00
2022-11-03T07:37:07.916Z,828.00
2022-11-03T07:38:08.536Z,844.00
2022-11-03T07:39:07.572Z,852.00
2022-11-03T07:40:07.556Z,860.00
2022-11-03T07:41:06.852Z,868.00
2022-11-03T07:42:08.285Z,892.00
2022-11-03T07:43:07.523Z,912.00
2022-11-03T07:44:06.853Z,924.00
2022-11-03T07:45:06.813Z,932.00
2022-11-03T07:46:07.487Z,940.00
2022-11-03T07:47:07.477Z,944.00
2022-11-03T07:48:07.694Z,956.00
2022-11-03T07:49:07.464Z,960.00
2022-11-03T07:50:07.525Z,972.00
2022-11-03T07:51:07.432Z,984.00
2022-11-03T07:52:06.763Z,1004.00
2022-11-03T07:53:07.656Z,1024.00
2022-11-03T07:54:07.406Z,1052.00
2022-11-03T07:55:06.708Z,1076.00
2022-11-03T07:56:06.817Z,1100.00
2022-11-03T07:57:07.369Z,1124.00
2022-11-03T07:58:07.680Z,1144.00
2022-11-03T07:59:07.347Z,1172.00
2022-11-03T08:00:10.233Z,1188.00
2022-11-03T08:01:06.638Z,1200.00
2022-11-03T08:02:07.359Z,1220.00
2022-11-03T08:03:07.552Z,1236.00
2022-11-03T08:04:07.291Z,1252.00
2022-11-03T08:05:07.312Z,1256.00
2022-11-03T08:06:09.108Z,1268.00
2022-11-03T08:07:06.560Z,1284.00
2022-11-03T08:08:07.659Z,1320.00
2022-11-03T08:09:06.565Z,1352.00
2022-11-03T08:10:06.549Z,1392.00
2022-11-03T08:11:07.277Z,1444.00
2022-11-03T08:12:07.231Z,1504.00
2022-11-03T08:13:06.816Z,1540.00
2022-11-03T08:14:06.671Z,1568.00
2022-11-03T08:15:07.164Z,1604.00
2022-11-03T08:16:06.471Z,1636.00
2022-11-03T08:17:07.153Z,1644.00
2022-11-03T08:18:07.139Z,1636.00
2022-11-03T08:19:06.434Z,1624.00
2022-11-03T08:20:07.893Z,1584.00
2022-11-03T08:21:07.112Z,1584.00
2022-11-03T08:22:07.093Z,1572.00
2022-11-03T08:24:08.074Z,1544.00
2022-11-03T08:25:07.053Z,1568.00
2022-11-03T08:26:07.133Z,1596.00
2022-11-03T08:27:07.036Z,1612.00
2022-11-03T08:28:07.028Z,1632.00
2022-11-03T08:29:07.026Z,1660.00
2022-11-03T08:30:06.315Z,1684.00
2022-11-03T08:31:11.179Z,1716.00
2022-11-03T08:32:07.966Z,1736.00
2022-11-03T08:33:07.213Z,1748.00
2022-11-03T08:34:06.297Z,1760.00
2022-11-03T08:35:06.960Z,1764.00
2022-11-03T08:36:06.937Z,1748.00
2022-11-03T08:37:06.926Z,1712.00
2022-11-03T08:38:07.180Z,1664.00
2022-11-03T08:39:06.907Z,1608.00
2022-11-03T08:40:06.197Z,1544.00
2022-11-03T08:41:06.208Z,1508.00
2022-11-03T08:42:06.198Z,1512.00
2022-11-03T08:43:06.863Z,1544.00
2022-11-03T08:44:06.947Z,1576.00
2022-11-03T08:45:06.148Z,1640.00
2022-11-03T08:46:16.678Z,1736.00
2022-11-03T08:47:08.560Z,1836.00
2022-11-03T08:48:06.434Z,1916.00
2022-11-03T08:49:06.800Z,1912.00
2022-11-03T08:50:06.152Z,1876.00
2022-11-03T08:51:06.778Z,1848.00
2022-11-03T08:52:06.768Z,1856.00
2022-11-03T08:53:07.513Z,1860.00
2022-11-03T08:54:06.742Z,1844.00
2022-11-03T08:55:06.063Z,1824.00
2022-11-03T08:56:10.402Z,1824.00
2022-11-03T08:57:07.022Z,1832.00
2022-11-03T08:58:06.318Z,1836.00
2022-11-03T08:59:06.691Z,1848.00
2022-11-03T09:00:06.680Z,1876.00
2022-11-03T09:01:07.973Z,1884.00
2022-11-03T09:02:06.729Z,1860.00
2022-11-03T09:03:06.672Z,1844.00
2022-11-03T09:04:06.694Z,1820.00
2022-11-03T09:05:06.623Z,1800.00
2022-11-03T09:06:05.928Z,1784.00
2022-11-03T09:07:06.594Z,1768.00
2022-11-03T09:10:26.363Z,1784.00
2022-11-03T09:11:07.546Z,1800.00
2022-11-03T09:12:06.535Z,1812.00
2022-11-03T09:13:06.197Z,1852.00
2022-11-03T09:14:06.489Z,1900.00
2022-11-03T09:15:05.826Z,1936.00
2022-11-03T09:16:05.827Z,1972.00
2022-11-03T09:17:05.819Z,2016.00
2022-11-03T09:18:06.156Z,2044.00
2022-11-03T09:19:06.467Z,2052.00
2022-11-03T09:20:06.447Z,2040.00
2022-11-03T09:21:06.447Z,2028.00
2022-11-03T09:22:06.445Z,2040.00
2022-11-03T09:23:06.424Z,2040.00
2022-11-03T09:24:06.681Z,2044.00
2022-11-03T09:25:06.406Z,2088.00
2022-11-03T09:26:06.381Z,2152.00
2022-11-03T09:27:05.689Z,2204.00
2022-11-03T09:28:07.554Z,2240.00
2022-11-03T09:29:06.357Z,2272.00
2022-11-03T09:30:13.316Z,2304.00
2022-11-03T09:31:06.742Z,2308.00
2022-11-03T09:32:06.331Z,2268.00
2022-11-03T09:33:06.312Z,2232.00
2022-11-03T09:34:06.311Z,2208.00
2022-11-03T09:35:07.601Z,2184.00
2022-11-03T09:36:06.283Z,2144.00
2022-11-03T09:37:06.351Z,2108.00
2022-11-03T09:38:06.892Z,2096.00
2022-11-03T09:39:06.245Z,2092.00
2022-11-03T09:40:06.994Z,2092.00
2022-11-03T09:41:13.633Z,2092.00
2022-11-03T09:42:08.004Z,2084.00
2022-11-03T09:43:05.792Z,2088.00
2022-11-03T09:44:06.455Z,2088.00
2022-11-03T09:45:06.184Z,2092.00
2022-11-03T09:46:06.189Z,2084.00
2022-11-03T09:47:06.167Z,2072.00
2022-11-03T09:48:06.161Z,2092.00
2022-11-03T09:49:06.147Z,2112.00
2022-11-03T09:50:06.301Z,2132.00
2022-11-03T09:51:06.125Z,2144.00
2022-11-03T09:52:06.119Z,2160.00
2022-11-03T09:53:06.407Z,2208.00
2022-11-03T09:54:06.187Z,2276.00
2022-11-03T09:55:07.347Z,2360.00
2022-11-03T09:56:06.105Z,2388.00
2022-11-03T09:57:07.341Z,2412.00
2022-11-03T09:58:05.603Z,2384.00
2022-11-03T09:59:06.040Z,2388.00
2022-11-03T10:00:06.314Z,2432.00
2022-11-03T10:01:06.092Z,2440.00
2022-11-03T10:02:06.110Z,2352.00
2022-11-03T10:03:05.800Z,2356.00
2022-11-03T10:04:05.988Z,2420.00
2022-11-03T10:05:11.012Z,2472.00
2022-11-03T10:06:07.624Z,2564.00
2022-11-03T10:07:05.960Z,2600.00
2022-11-03T10:08:05.252Z,2656.00
2022-11-03T10:09:05.931Z,2720.00
2022-11-03T10:10:05.922Z,2772.00
2022-11-03T10:11:05.220Z,2748.00
2022-11-03T10:12:05.882Z,2760.00
2022-11-03T10:13:05.540Z,2792.00
2022-11-03T10:14:05.872Z,2832.00
2022-11-03T10:15:06.111Z,2848.00
2022-11-03T10:16:07.102Z,2900.00
2022-11-03T10:17:06.093Z,2940.00
2022-11-03T10:18:05.184Z,3016.00
2022-11-03T10:19:06.074Z,3108.00
2022-11-03T10:20:05.149Z,3152.00
2022-11-03T10:21:05.816Z,3180.00
2022-11-03T10:22:05.105Z,3208.00
2022-11-03T10:23:05.994Z,3224.00
2022-11-03T10:24:05.755Z,3260.00
2022-11-03T10:25:05.754Z,3272.00
2022-11-03T10:26:06.046Z,3328.00
2022-11-03T10:27:05.036Z,3284.00
2022-11-03T10:28:05.048Z,3336.00
2022-11-03T10:29:05.739Z,3332.00
2022-11-03T10:30:05.692Z,3324.00
2022-11-03T10:31:11.747Z,3292.00
2022-11-03T10:32:06.929Z,3264.00
2022-11-03T10:33:05.953Z,3296.00
2022-11-03T10:34:06.908Z,3360.00
2022-11-03T10:35:06.367Z,3340.00
2022-11-03T10:36:05.050Z,3344.00
2022-11-03T10:37:06.888Z,3432.00
2022-11-03T10:38:05.620Z,3468.00
2022-11-03T10:39:05.608Z,3452.00
2022-11-03T10:40:07.077Z,3412.00
2022-11-03T10:41:05.579Z,3356.00
2022-11-03T10:42:05.570Z,3292.00
2022-11-03T10:43:05.826Z,3260.00
2022-11-03T10:44:06.800Z,3296.00
2022-11-03T10:45:06.793Z,3320.00
2022-11-03T10:46:08.079Z,3336.00
2022-11-03T10:47:05.760Z,3324.00
2022-11-03T10:48:06.772Z,3356.00
2022-11-03T10:50:05.474Z,3440.00
2022-11-03T10:51:05.466Z,3396.00
2022-11-03T10:52:06.724Z,3384.00
2022-11-03T10:53:06.998Z,3384.00
2022-11-03T10:54:05.446Z,3372.00
2022-11-03T10:55:05.703Z,3368.00
2022-11-03T10:56:05.414Z,3328.00
2022-11-03T10:57:05.674Z,3276.00
2022-11-03T10:58:05.648Z,3244.00
2022-11-03T10:59:05.655Z,3216.00
2022-11-03T11:00:05.363Z,3216.00
2022-11-03T11:01:05.447Z,3232.00
2022-11-03T11:02:04.803Z,3220.00
2022-11-03T11:03:06.844Z,3212.00
2022-11-03T11:04:05.397Z,3196.00
2022-11-03T11:05:04.637Z,3188.00
2022-11-03T11:06:05.297Z,3160.00
2022-11-03T11:07:05.296Z,3108.00
2022-11-03T11:08:05.356Z,3064.00
2022-11-03T11:09:05.276Z,3024.00
2022-11-03T11:10:05.267Z,2988.00
2022-11-03T11:11:05.260Z,2956.00
2022-11-03T11:12:05.241Z,2932.00
2022-11-03T11:13:05.500Z,2924.00
2022-11-03T11:14:05.224Z,2908.00
2022-11-03T11:15:05.949Z,2872.00
2022-11-03T11:16:05.472Z,2824.00
2022-11-03T11:17:04.521Z,2744.00
2022-11-03T11:18:05.242Z,2660.00
2022-11-03T11:19:05.161Z,2620.00
2022-11-03T11:20:05.440Z,2584.00
2022-11-03T11:21:05.151Z,2520.00
2022-11-03T11:22:04.461Z,2436.00
2022-11-03T11:23:04.942Z,2352.00
2022-11-03T11:24:05.893Z,2284.00
2022-11-03T11:25:05.111Z,2236.00
2022-11-03T11:26:05.092Z,2208.00
2022-11-03T11:27:05.085Z,2136.00
2022-11-03T11:28:04.412Z,2104.00
2022-11-03T11:29:05.055Z,2064.00
2022-11-03T11:30:04.403Z,2004.00
2022-11-03T11:31:05.794Z,1996.00
2022-11-03T11:32:04.356Z,2060.00
2022-11-03T11:33:04.615Z,2068.00
2022-11-03T11:34:05.016Z,2084.00
2022-11-03T11:35:04.322Z,2072.00
2022-11-03T11:36:04.327Z,2008.00
2022-11-03T11:37:04.973Z,1956.00
2022-11-03T11:38:04.966Z,1936.00
2022-11-03T11:39:04.963Z,2012.00
2022-11-03T11:40:04.288Z,2112.00
2022-11-03T11:41:04.943Z,2204.00
2022-11-03T11:42:04.908Z,2268.00
2022-11-03T11:43:05.340Z,2308.00
2022-11-03T11:44:04.899Z,2340.00
2022-11-03T11:45:05.151Z,2376.00
2022-11-03T11:46:04.210Z,2404.00
2022-11-03T11:47:04.873Z,2428.00
2022-11-03T11:48:04.188Z,2440.00
2022-11-03T11:49:04.175Z,2440.00
2022-11-03T11:50:04.839Z,2428.00
2022-11-03T11:51:05.081Z,2412.00
2022-11-03T11:52:05.559Z,2396.00
2022-11-03T11:53:05.421Z,2372.00
2022-11-03T11:54:17.405Z,2320.00
2022-11-03T11:55:06.040Z,2240.00
2022-11-03T11:56:04.773Z,2160.00
2022-11-03T11:57:04.757Z,2084.00
2022-11-03T11:58:04.084Z,2036.00
2022-11-03T11:59:04.757Z,2032.00
2022-11-03T12:00:04.084Z,2060.00
2022-11-03T12:01:04.715Z,2112.00
2022-11-03T12:02:04.965Z,2176.00
2022-11-03T12:03:04.137Z,2260.00
2022-11-03T12:04:04.813Z,2372.00
2022-11-03T12:05:03.998Z,2456.00
2022-11-03T12:06:04.013Z,2492.00
2022-11-03T12:07:03.975Z,2508.00
2022-11-03T12:08:04.137Z,2496.00
2022-11-03T12:09:03.945Z,2448.00
2022-11-03T12:10:04.616Z,2332.00
2022-11-03T12:11:04.651Z,2144.00
2022-11-03T12:12:08.596Z,1992.00
2022-11-03T12:13:04.865Z,1908.00
2022-11-03T12:14:03.899Z,1804.00
2022-11-03T12:15:04.557Z,1724.00
2022-11-03T12:16:03.879Z,1664.00
2022-11-03T12:17:04.000Z,1624.00
2022-11-03T12:18:04.955Z,1620.00
2022-11-03T12:19:03.839Z,1596.00
2022-11-03T12:20:04.508Z,1576.00
2022-11-03T12:21:04.499Z,1592.00
2022-11-03T12:22:04.489Z,1620.00
2022-11-03T12:23:04.478Z,1592.00
2022-11-03T12:24:04.469Z,1556.00
2022-11-03T12:25:03.778Z,1540.00
2022-11-03T12:26:04.449Z,1540.00
2022-11-03T12:27:05.201Z,1548.00
2022-11-03T12:28:04.049Z,1560.00
2022-11-03T12:29:04.414Z,1564.00
2022-11-03T12:30:03.761Z,1584.00
2022-11-03T12:31:03.733Z,1632.00
2022-11-03T12:32:03.712Z,1740.00
2022-11-03T12:33:04.882Z,1944.00
2022-11-03T12:34:04.361Z,2188.00
2022-11-03T12:35:04.355Z,2360.00
2022-11-03T12:36:04.323Z,2544.00
2022-11-03T12:37:03.659Z,2784.00
2022-11-03T12:38:04.319Z,3032.00
2022-11-03T12:39:04.306Z,3152.00
2022-11-03T12:40:04.293Z,3100.00
2022-11-03T12:41:04.284Z,3092.00
2022-11-03T12:42:04.265Z,3212.00
2022-11-03T12:43:04.579Z,3316.00
2022-11-03T12:44:04.302Z,3424.00
2022-11-03T12:45:04.242Z,3572.00
2022-11-03T12:46:04.501Z,3652.00
2022-11-03T12:47:04.233Z,3588.00
2022-11-03T12:48:04.196Z,3532.00
2022-11-03T12:49:04.196Z,3424.00